Time,TemperatureF,DewpointF,PressureIn,WindDirection,WindDirectionDegrees,WindSpeedMPH,WindSpeedGustMPH,Humidity,HourlyPrecipIn,Conditions,Clouds,dailyrainin,SolarRadiationWatts/m^2,SoftwareType,DateUTC
2013-04-20 00:02:00,46.0,46.0,-100.00,NW,324,1.0,3.0,100,0.00,,,0.28,0.000000,,2013-04-20 10:02:00,
2013-04-20 00:12:00,46.0,46.0,-100.00,NW,324,1.0,3.0,100,0.00,,,0.28,0.000000,,2013-04-20 10:12:00,
2013-04-20 00:23:00,46.0,46.0,-100.00,NW,324,1.0,3.0,100,0.00,,,0.28,0.000000,,2013-04-20 10:23:00,
2013-04-20 00:32:00,46.0,46.0,-100.00,NW,324,1.0,3.0,100,0.00,,,0.28,0.000000,,2013-04-20 10:32:00,
2013-04-20 00:53:00,47.0,47.0,-100.00,NNW,335,4.0,6.0,99,0.00,,,0.28,0.000000,,2013-04-20 10:53:00,
2013-04-20 01:02:00,47.0,47.0,-100.00,NNW,335,4.0,6.0,99,0.00,,,0.28,0.000000,,2013-04-20 11:02:00,
2013-04-20 01:12:00,47.0,47.0,-100.00,NNW,335,4.0,6.0,99,0.00,,,0.28,0.000000,,2013-04-20 11:12:00,
2013-04-20 01:22:00,47.0,47.0,-100.00,NNW,335,4.0,6.0,99,0.00,,,0.28,0.000000,,2013-04-20 11:22:00,
2013-04-20 01:31:00,47.0,47.0,-100.00,NNW,335,4.0,6.0,99,0.00,,,0.28,0.000000,,2013-04-20 11:31:00,
2013-04-20 02:02:00,43.0,43.0,-100.00,NW,321,6.0,7.0,99,0.00,,,0.28,0.000000,,2013-04-20 12:02:00,
2013-04-20 02:11:00,43.0,43.0,-100.00,NW,321,6.0,7.0,99,0.00,,,0.28,0.000000,,2013-04-20 12:11:00,
2013-04-20 02:22:00,43.0,43.0,-100.00,NW,321,6.0,7.0,99,0.00,,,0.28,0.000000,,2013-04-20 12:22:00,
2013-04-20 02:32:00,43.0,43.0,-100.00,NW,321,6.0,7.0,99,0.00,,,0.28,0.000000,,2013-04-20 12:32:00,
2013-04-20 03:02:00,44.0,43.0,-100.00,NW,320,6.0,8.0,98,0.00,,,0.28,0.000000,,2013-04-20 13:02:00,
2013-04-20 03:11:00,44.0,43.0,-100.00,NW,320,6.0,8.0,98,0.00,,,0.28,0.000000,,2013-04-20 13:11:00,
2013-04-20 03:21:00,44.0,43.0,-100.00,NW,320,6.0,8.0,98,0.00,,,0.28,0.000000,,2013-04-20 13:21:00,
2013-04-20 03:31:00,44.0,43.0,-100.00,NW,320,6.0,8.0,98,0.00,,,0.28,0.000000,,2013-04-20 13:31:00,
2013-04-20 04:02:00,43.0,42.0,-100.00,NW,314,6.0,10.0,97,0.00,,,0.28,0.000000,,2013-04-20 14:02:00,
2013-04-20 04:11:00,43.0,42.0,-100.00,NW,314,6.0,10.0,97,0.00,,,0.28,0.000000,,2013-04-20 14:11:00,
2013-04-20 04:21:00,43.0,42.0,-100.00,NW,314,6.0,10.0,97,0.00,,,0.28,0.000000,,2013-04-20 14:21:00,
2013-04-20 04:31:00,43.0,42.0,-100.00,NW,314,6.0,10.0,97,0.00,,,0.28,0.000000,,2013-04-20 14:31:00,
2013-04-20 05:01:00,40.0,38.0,-100.00,NW,304,6.0,9.0,94,0.00,,,0.28,0.000000,,2013-04-20 15:01:00,
2013-04-20 05:11:00,40.0,38.0,-100.00,NW,304,6.0,9.0,94,0.00,,,0.28,0.000000,,2013-04-20 15:11:00,
2013-04-20 05:21:00,40.0,38.0,-100.00,NW,304,6.0,9.0,94,0.00,,,0.28,0.000000,,2013-04-20 15:21:00,
2013-04-20 05:33:00,40.0,38.0,-100.00,NW,304,6.0,9.0,94,0.00,,,0.28,0.000000,,2013-04-20 15:33:00,
2013-04-20 05:53:00,40.0,37.0,-100.00,WNW,294,4.0,9.0,90,0.01,,,0.29,0.000000,,2013-04-20 15:53:00,
2013-04-20 06:03:00,40.0,37.0,-100.00,WNW,294,4.0,9.0,90,0.01,,,0.29,0.000000,,2013-04-20 16:03:00,
2013-04-20 06:12:00,40.0,37.0,-100.00,WNW,294,4.0,9.0,90,0.01,,,0.29,0.000000,,2013-04-20 16:12:00,
2013-04-20 06:23:00,40.0,37.0,-100.00,WNW,294,4.0,9.0,90,0.01,,,0.29,0.000000,,2013-04-20 16:23:00,
2013-04-20 06:32:00,40.0,37.0,-100.00,WNW,294,4.0,9.0,90,0.01,,,0.29,0.000000,,2013-04-20 16:32:00,
2013-04-20 07:02:00,42.0,39.0,-100.00,WNW,300,1.0,9.0,90,0.00,,,0.29,41.000000,,2013-04-20 17:02:00,
2013-04-20 07:12:00,42.0,39.0,-100.00,WNW,300,1.0,9.0,90,0.00,,,0.29,41.000000,,2013-04-20 17:12:00,
2013-04-20 07:22:00,42.0,39.0,-100.00,WNW,300,1.0,9.0,90,0.00,,,0.29,41.000000,,2013-04-20 17:22:00,
2013-04-20 07:32:00,42.0,39.0,-100.00,WNW,300,1.0,9.0,90,0.00,,,0.29,41.000000,,2013-04-20 17:32:00,
2013-04-20 07:52:00,57.0,51.0,-100.00,ENE,63,3.0,8.0,80,0.00,,,0.29,348.000000,,2013-04-20 17:52:00,
2013-04-20 08:02:00,57.0,51.0,-100.00,ENE,63,3.0,8.0,80,0.00,,,0.29,348.000000,,2013-04-20 18:02:00,
2013-04-20 08:12:00,57.0,51.0,-100.00,ENE,63,3.0,8.0,80,0.00,,,0.29,348.000000,,2013-04-20 18:12:00,
2013-04-20 08:22:00,57.0,51.0,-100.00,ENE,63,3.0,8.0,80,0.00,,,0.29,348.000000,,2013-04-20 18:22:00,
2013-04-20 08:32:00,57.0,51.0,-100.00,ENE,63,3.0,8.0,80,0.00,,,0.29,348.000000,,2013-04-20 18:32:00,
2013-04-20 09:01:00,62.0,54.0,-100.00,East,87,3.0,6.0,75,0.00,,,0.29,632.000000,,2013-04-20 19:01:00,
2013-04-20 09:11:00,62.0,54.0,-100.00,East,87,3.0,6.0,75,0.00,,,0.29,632.000000,,2013-04-20 19:11:00,
2013-04-20 09:21:00,62.0,54.0,-100.00,East,87,3.0,6.0,75,0.00,,,0.29,632.000000,,2013-04-20 19:21:00,
2013-04-20 09:31:00,62.0,54.0,-100.00,East,87,3.0,6.0,75,0.00,,,0.29,632.000000,,2013-04-20 19:31:00,
2013-04-20 10:02:00,65.0,56.0,-100.00,South,179,3.0,8.0,73,0.00,,,0.29,806.000000,,2013-04-20 20:02:00,
2013-04-20 10:12:00,65.0,56.0,-100.00,South,179,3.0,8.0,73,0.00,,,0.29,806.000000,,2013-04-20 20:12:00,
2013-04-20 10:21:00,65.0,56.0,-100.00,South,179,3.0,8.0,73,0.00,,,0.29,806.000000,,2013-04-20 20:21:00,
2013-04-20 10:32:00,65.0,56.0,-100.00,South,179,3.0,8.0,73,0.00,,,0.29,806.000000,,2013-04-20 20:32:00,
2013-04-20 11:01:00,68.0,56.0,-100.00,SSE,168,5.0,7.0,65,0.00,,,0.29,1164.000000,,2013-04-20 21:01:00,
2013-04-20 11:12:00,68.0,56.0,-100.00,SSE,168,5.0,7.0,65,0.00,,,0.29,1164.000000,,2013-04-20 21:12:00,
2013-04-20 11:21:00,68.0,56.0,-100.00,SSE,168,5.0,7.0,65,0.00,,,0.29,1164.000000,,2013-04-20 21:21:00,
2013-04-20 11:32:00,68.0,56.0,-100.00,SSE,168,5.0,7.0,65,0.00,,,0.29,1164.000000,,2013-04-20 21:32:00,
2013-04-20 12:02:00,69.0,53.0,-100.00,SSE,151,5.0,10.0,57,0.00,,,0.29,1233.000000,,2013-04-20 22:02:00,
2013-04-20 12:12:00,69.0,53.0,-100.00,SSE,151,5.0,10.0,57,0.00,,,0.29,1233.000000,,2013-04-20 22:12:00,
2013-04-20 12:22:00,69.0,53.0,-100.00,SSE,151,5.0,10.0,57,0.00,,,0.29,1233.000000,,2013-04-20 22:22:00,
2013-04-20 12:32:00,69.0,53.0,-100.00,SSE,151,5.0,10.0,57,0.00,,,0.29,1233.000000,,2013-04-20 22:32:00,
2013-04-20 13:02:00,69.0,54.0,-100.00,SSE,164,6.0,10.0,59,0.00,,,0.28,1129.000000,,2013-04-20 23:02:00,
2013-04-20 13:11:00,69.0,54.0,-100.00,SSE,164,6.0,10.0,59,0.00,,,0.28,1129.000000,,2013-04-20 23:11:00,
2013-04-20 13:22:00,69.0,54.0,-100.00,SSE,164,6.0,10.0,59,0.00,,,0.28,1129.000000,,2013-04-20 23:22:00,
2013-04-20 13:32:00,69.0,54.0,-100.00,SSE,164,6.0,10.0,59,0.00,,,0.28,1129.000000,,2013-04-20 23:32:00,
2013-04-20 14:01:00,67.0,55.0,-100.00,SE,143,6.0,15.0,66,0.00,,,0.26,728.000000,,2013-04-21 00:01:00,
2013-04-20 14:11:00,67.0,55.0,-100.00,SE,143,6.0,15.0,66,0.00,,,0.26,728.000000,,2013-04-21 00:11:00,
2013-04-20 14:21:00,67.0,55.0,-100.00,SE,143,6.0,15.0,66,0.00,,,0.26,728.000000,,2013-04-21 00:21:00,
2013-04-20 14:31:00,67.0,55.0,-100.00,SE,143,6.0,15.0,66,0.00,,,0.26,728.000000,,2013-04-21 00:31:00,
2013-04-20 15:01:00,60.0,53.0,-100.00,South,172,6.0,12.0,78,0.00,,,0.20,321.000000,,2013-04-21 01:01:00,
2013-04-20 15:11:00,60.0,53.0,-100.00,South,172,6.0,12.0,78,0.00,,,0.20,321.000000,,2013-04-21 01:11:00,
2013-04-20 15:21:00,60.0,53.0,-100.00,South,172,6.0,12.0,78,0.00,,,0.20,321.000000,,2013-04-21 01:21:00,
2013-04-20 15:31:00,60.0,53.0,-100.00,South,172,6.0,12.0,78,0.00,,,0.20,321.000000,,2013-04-21 01:31:00,
2013-04-20 15:52:00,59.0,56.0,-100.00,North,354,3.0,11.0,89,0.00,,,0.16,85.000000,,2013-04-21 01:52:00,
2013-04-20 16:01:00,59.0,56.0,-100.00,North,354,3.0,11.0,89,0.00,,,0.16,85.000000,,2013-04-21 02:01:00,
2013-04-20 16:11:00,59.0,56.0,-100.00,North,354,3.0,11.0,89,0.00,,,0.16,85.000000,,2013-04-21 02:11:00,
2013-04-20 16:21:00,59.0,56.0,-100.00,North,354,3.0,11.0,89,0.00,,,0.16,85.000000,,2013-04-21 02:21:00,
2013-04-20 16:31:00,59.0,56.0,-100.00,North,354,3.0,11.0,89,0.00,,,0.16,85.000000,,2013-04-21 02:31:00,
2013-04-20 17:01:00,56.0,55.0,-100.00,SSW,193,2.0,10.0,98,0.00,,,0.09,54.000000,,2013-04-21 03:01:00,
2013-04-20 17:11:00,56.0,55.0,-100.00,SSW,193,2.0,10.0,98,0.00,,,0.09,54.000000,,2013-04-21 03:11:00,
2013-04-20 17:21:00,56.0,55.0,-100.00,SSW,193,2.0,10.0,98,0.00,,,0.09,54.000000,,2013-04-21 03:21:00,
2013-04-20 17:32:00,56.0,55.0,-100.00,SSW,193,2.0,10.0,98,0.00,,,0.09,54.000000,,2013-04-21 03:32:00,
2013-04-20 18:02:00,55.0,55.0,-100.00,SSW,200,2.0,7.0,99,0.00,,,0.03,19.000000,,2013-04-21 04:02:00,
2013-04-20 18:12:00,55.0,55.0,-100.00,SSW,200,2.0,7.0,99,0.00,,,0.03,19.000000,,2013-04-21 04:12:00,
2013-04-20 18:22:00,55.0,55.0,-100.00,SSW,200,2.0,7.0,99,0.00,,,0.03,19.000000,,2013-04-21 04:22:00,
2013-04-20 18:32:00,55.0,55.0,-100.00,SSW,200,2.0,7.0,99,0.00,,,0.03,19.000000,,2013-04-21 04:32:00,
2013-04-20 18:53:00,54.0,54.0,-100.00,South,169,2.0,5.0,100,0.00,,,0.02,6.000000,,2013-04-21 04:53:00,
2013-04-20 19:02:00,54.0,54.0,-100.00,South,169,2.0,5.0,100,0.00,,,0.02,6.000000,,2013-04-21 05:02:00,
2013-04-20 19:12:00,54.0,54.0,-100.00,South,169,2.0,5.0,100,0.00,,,0.02,6.000000,,2013-04-21 05:12:00,
2013-04-20 19:22:00,54.0,54.0,-100.00,South,169,2.0,5.0,100,0.00,,,0.02,6.000000,,2013-04-21 05:22:00,
2013-04-20 19:32:00,54.0,54.0,-100.00,South,169,2.0,5.0,100,0.00,,,0.02,6.000000,,2013-04-21 05:32:00,
2013-04-20 20:01:00,54.0,54.0,-100.00,South,185,2.0,5.0,100,0.00,,,0.01,0.000000,,2013-04-21 06:01:00,
2013-04-20 20:12:00,54.0,54.0,-100.00,South,185,2.0,5.0,100,0.00,,,0.01,0.000000,,2013-04-21 06:12:00,
2013-04-20 20:21:00,54.0,54.0,-100.00,South,185,2.0,5.0,100,0.00,,,0.01,0.000000,,2013-04-21 06:21:00,
2013-04-20 20:32:00,54.0,54.0,-100.00,South,185,2.0,5.0,100,0.00,,,0.01,0.000000,,2013-04-21 06:32:00,
2013-04-20 21:01:00,54.0,54.0,-100.00,South,181,3.0,6.0,100,0.00,,,0.01,0.000000,,2013-04-21 07:01:00,
2013-04-20 21:11:00,54.0,54.0,-100.00,South,181,3.0,6.0,100,0.00,,,0.01,0.000000,,2013-04-21 07:11:00,
2013-04-20 21:21:00,54.0,54.0,-100.00,South,181,3.0,6.0,100,0.00,,,0.01,0.000000,,2013-04-21 07:21:00,
2013-04-20 21:31:00,54.0,54.0,-100.00,South,181,3.0,6.0,100,0.00,,,0.01,0.000000,,2013-04-21 07:31:00,
2013-04-20 22:01:00,54.0,54.0,-100.00,South,178,1.0,5.0,100,0.00,,,0.01,0.000000,,2013-04-21 08:01:00,
2013-04-20 22:12:00,54.0,54.0,-100.00,South,178,1.0,5.0,100,0.00,,,0.01,0.000000,,2013-04-21 08:12:00,
2013-04-20 22:21:00,54.0,54.0,-100.00,South,178,1.0,5.0,100,0.00,,,0.01,0.000000,,2013-04-21 08:21:00,
2013-04-20 22:32:00,54.0,54.0,-100.00,South,178,1.0,5.0,100,0.00,,,0.01,0.000000,,2013-04-21 08:32:00,
2013-04-20 23:01:00,55.0,55.0,-100.00,NE,52,0.0,6.0,100,0.00,,,0.01,0.000000,,2013-04-21 09:01:00,
2013-04-20 23:11:00,55.0,55.0,-100.00,NE,52,0.0,6.0,100,0.00,,,0.01,0.000000,,2013-04-21 09:11:00,
2013-04-20 23:21:00,55.0,55.0,-100.00,NE,52,0.0,6.0,100,0.00,,,0.01,0.000000,,2013-04-21 09:21:00,
2013-04-20 23:32:00,55.0,55.0,-100.00,NE,52,0.0,6.0,100,0.00,,,0.01,0.000000,,2013-04-21 09:32:00,